createdAt,value
2023-04-23T00:00:19.297Z,83.57
2023-04-23T00:02:54.453Z,85.65
2023-04-23T00:05:27.388Z,91.30
2023-04-23T00:07:56.121Z,87.70
2023-04-23T00:10:25.412Z,91.30
2023-04-23T00:12:54.782Z,89.38
2023-04-23T00:15:23.720Z,91.60
2023-04-23T00:17:52.207Z,93.40
2023-04-23T00:20:20.816Z,89.32
2023-04-23T00:22:51.260Z,92.85
2023-04-23T00:25:19.759Z,91.68
2023-04-23T00:27:48.837Z,88.05
2023-04-23T00:30:18.875Z,91.73
2023-04-23T00:32:47.697Z,94.55
2023-04-23T00:35:16.065Z,93.00
2023-04-23T00:37:45.329Z,91.97
2023-04-23T00:40:15.744Z,91.88
2023-04-23T00:42:45.704Z,95.03
2023-04-23T00:45:14.207Z,90.72
2023-04-23T00:47:42.704Z,90.65
2023-04-23T00:50:13.159Z,95.57
2023-04-23T00:52:41.651Z,91.75
2023-04-23T00:55:10.644Z,91.28
2023-04-23T00:57:40.942Z,86.43
2023-04-23T01:00:13.950Z,91.03
2023-04-23T01:02:44.646Z,85.32
2023-04-23T01:05:15.669Z,88.25
2023-04-23T01:07:45.808Z,81.03
2023-04-23T01:10:14.794Z,79.75
2023-04-23T01:12:45.066Z,81.15
2023-04-23T01:15:13.691Z,78.90
2023-04-23T01:17:43.211Z,81.55
2023-04-23T01:20:12.674Z,76.25
2023-04-23T01:22:42.416Z,78.55
2023-04-23T01:25:11.686Z,72.53
2023-04-23T01:27:40.514Z,76.00
2023-04-23T01:30:10.958Z,80.18
2023-04-23T01:32:40.666Z,77.25
2023-04-23T01:35:13.202Z,80.30
2023-04-23T01:37:44.776Z,83.93
2023-04-23T01:40:13.604Z,79.18
2023-04-23T01:42:42.471Z,81.25
2023-04-23T01:45:12.083Z,76.43
2023-04-23T01:47:42.458Z,72.88
2023-04-23T01:50:11.812Z,72.95
2023-04-23T01:52:40.479Z,71.82
2023-04-23T01:55:10.498Z,65.78
2023-04-23T01:57:39.089Z,73.53
2023-04-23T02:00:11.421Z,67.30
2023-04-23T02:02:44.933Z,65.43
2023-04-23T02:05:16.478Z,66.50
2023-04-23T02:07:45.819Z,66.90
2023-04-23T02:10:16.219Z,63.92
2023-04-23T02:12:46.907Z,65.57
2023-04-23T02:15:16.645Z,62.33
2023-04-23T02:17:45.084Z,60.03
2023-04-23T02:20:13.993Z,62.75
2023-04-23T02:22:44.049Z,58.33
2023-04-23T02:25:15.724Z,57.10
2023-04-23T02:27:45.666Z,54.33
2023-04-23T02:30:14.859Z,50.70
2023-04-23T02:32:44.161Z,53.58
2023-04-23T02:35:13.375Z,50.47
2023-04-23T02:37:42.292Z,48.83
2023-04-23T02:40:12.204Z,50.03
2023-04-23T02:42:42.566Z,49.33
2023-04-23T02:45:14.061Z,50.55
2023-04-23T02:47:42.488Z,48.40
2023-04-23T02:50:11.455Z,48.90
2023-04-23T02:52:39.847Z,47.35
2023-04-23T02:55:10.751Z,45.85
2023-04-23T02:57:39.615Z,49.28
2023-04-23T03:00:12.295Z,45.58
2023-04-23T03:02:44.900Z,51.40
2023-04-23T03:05:13.752Z,51.55
2023-04-23T03:07:42.870Z,47.33
2023-04-23T03:10:11.984Z,52.08
2023-04-23T03:12:40.336Z,49.20
2023-04-23T03:15:10.298Z,50.47
2023-04-23T03:17:39.475Z,51.22
2023-04-23T03:20:11.790Z,46.72
2023-04-23T03:22:41.194Z,47.25
2023-04-23T03:25:11.144Z,50.08
2023-04-23T03:27:40.982Z,48.10
2023-04-23T03:30:11.295Z,47.22
2023-04-23T03:32:40.085Z,42.25
2023-04-23T03:35:11.069Z,43.40
2023-04-23T03:37:43.053Z,45.85
2023-04-23T03:40:12.183Z,44.92
2023-04-23T03:42:42.734Z,43.38
2023-04-23T03:45:14.548Z,39.03
2023-04-23T03:47:43.084Z,39.90
2023-04-23T03:50:14.158Z,41.85
2023-04-23T03:52:45.001Z,41.70
2023-04-23T03:55:21.139Z,37.67
2023-04-23T03:57:50.493Z,41.45
2023-04-23T04:00:25.052Z,38.95
2023-04-23T04:02:53.757Z,39.92
2023-04-23T04:05:25.638Z,38.25
2023-04-23T04:07:55.928Z,38.53
2023-04-23T04:10:26.113Z,36.15
2023-04-23T04:12:55.330Z,36.42
2023-04-23T04:15:23.947Z,38.00
2023-04-23T04:17:52.305Z,39.42
2023-04-23T04:20:20.704Z,36.70
2023-04-23T04:22:50.426Z,36.58
2023-04-23T04:25:18.925Z,39.20
2023-04-23T04:27:48.018Z,41.58
2023-04-23T04:30:16.832Z,40.00
2023-04-23T04:32:46.266Z,40.80
2023-04-23T04:35:14.841Z,44.22
2023-04-23T04:37:43.829Z,41.63
2023-04-23T04:40:15.195Z,44.58
2023-04-23T04:42:43.669Z,38.15
2023-04-23T04:45:12.791Z,40.08
2023-04-23T04:47:41.893Z,40.83
2023-04-23T04:50:11.624Z,45.17
2023-04-23T04:52:39.995Z,41.40
2023-04-23T04:55:09.332Z,40.88
2023-04-23T04:57:39.049Z,41.25
2023-04-23T05:00:23.665Z,43.97
2023-04-23T05:02:52.551Z,47.47
2023-04-23T05:05:22.669Z,45.05
2023-04-23T05:07:51.105Z,48.47
2023-04-23T05:10:19.643Z,43.40
2023-04-23T05:12:51.698Z,45.22
2023-04-23T05:15:20.033Z,47.83
2023-04-23T05:17:50.291Z,46.38
2023-04-23T05:20:18.748Z,44.70
2023-04-23T05:22:47.098Z,48.30
2023-04-23T05:25:15.637Z,44.20
2023-04-23T05:27:44.026Z,47.08
2023-04-23T05:30:14.241Z,45.65
2023-04-23T05:32:42.588Z,43.83
2023-04-23T05:35:11.229Z,44.25
2023-04-23T05:37:39.796Z,49.25
2023-04-23T05:40:09.731Z,43.60
2023-04-23T05:42:38.529Z,41.53
2023-04-23T05:45:09.157Z,44.60
2023-04-23T05:47:39.320Z,45.70
2023-04-23T05:50:11.231Z,45.25
2023-04-23T05:52:39.723Z,45.92
2023-04-23T05:55:09.582Z,37.17
2023-04-23T05:57:39.322Z,36.47
2023-04-23T06:00:11.789Z,37.38
2023-04-23T06:02:44.600Z,30.17
2023-04-23T06:05:13.494Z,31.13
2023-04-23T06:07:42.293Z,26.27
2023-04-23T06:10:12.571Z,28.80
2023-04-23T06:12:42.137Z,27.92
2023-04-23T06:15:11.691Z,25.90
2023-04-23T06:17:40.685Z,25.75
2023-04-23T06:20:12.002Z,28.90
2023-04-23T06:22:40.550Z,26.65
2023-04-23T06:25:10.372Z,23.90
2023-04-23T06:27:38.821Z,22.02
2023-04-23T06:30:14.981Z,24.83
2023-04-23T06:32:43.439Z,26.15
2023-04-23T06:35:13.222Z,24.33
2023-04-23T06:37:41.517Z,26.40
2023-04-23T06:40:11.162Z,24.50
2023-04-23T06:42:39.544Z,23.77
2023-04-23T06:45:19.895Z,22.42
2023-04-23T06:47:49.362Z,20.15
2023-04-23T06:50:19.166Z,25.17
2023-04-23T06:52:47.491Z,21.10
2023-04-23T06:55:15.853Z,22.02
2023-04-23T06:57:44.214Z,23.10
2023-04-23T07:00:14.214Z,23.35
2023-04-23T07:02:44.620Z,20.65
2023-04-23T07:05:13.233Z,21.15
2023-04-23T07:07:43.518Z,20.38
2023-04-23T07:10:16.218Z,20.17
2023-04-23T07:12:46.179Z,18.92
2023-04-23T07:15:14.646Z,23.40
2023-04-23T07:17:43.063Z,20.00
2023-04-23T07:20:12.129Z,17.85
2023-04-23T07:22:43.006Z,18.08
2023-04-23T07:25:12.845Z,21.98
2023-04-23T07:27:41.218Z,17.52
2023-04-23T07:30:11.151Z,18.05
2023-04-23T07:32:40.757Z,19.63
2023-04-23T07:35:11.535Z,18.20
2023-04-23T07:37:40.402Z,17.50
2023-04-23T07:40:11.644Z,16.92
2023-04-23T07:42:40.457Z,15.90
2023-04-23T07:45:11.455Z,18.58
2023-04-23T07:47:39.822Z,18.50
2023-04-23T07:50:10.483Z,16.73
2023-04-23T07:52:38.991Z,18.38
2023-04-23T07:55:10.260Z,20.90
2023-04-23T07:57:38.930Z,19.48
2023-04-23T08:00:09.517Z,21.45
2023-04-23T08:02:41.699Z,19.20
2023-04-23T08:05:11.111Z,23.63
2023-04-23T08:07:39.727Z,24.75
2023-04-23T08:10:10.822Z,23.00
2023-04-23T08:12:39.581Z,20.08
2023-04-23T08:15:09.263Z,17.80
2023-04-23T08:17:41.707Z,20.95
2023-04-23T08:20:11.015Z,16.63
2023-04-23T08:22:39.395Z,20.63
2023-04-23T08:25:10.763Z,19.23
2023-04-23T08:27:39.151Z,17.60
2023-04-23T08:30:09.563Z,21.25
2023-04-23T08:32:39.778Z,17.50
2023-04-23T08:35:09.426Z,17.48
2023-04-23T08:37:39.046Z,17.30
2023-04-23T08:40:11.058Z,18.52
2023-04-23T08:42:44.860Z,16.58
2023-04-23T08:45:14.536Z,18.40
2023-04-23T08:47:44.464Z,17.65
2023-04-23T08:50:14.576Z,21.30
2023-04-23T08:52:48.533Z,22.90
2023-04-23T08:55:18.993Z,18.88
2023-04-23T08:57:48.313Z,19.50
2023-04-23T09:00:18.866Z,22.45
2023-04-23T09:05:17.579Z,23.10
2023-04-23T09:07:46.373Z,19.38
2023-04-23T09:10:18.500Z,21.58
2023-04-23T09:12:48.273Z,16.23
2023-04-23T09:15:18.236Z,16.33
2023-04-23T09:17:48.234Z,18.55
2023-04-23T09:20:17.674Z,19.88
2023-04-23T09:22:48.127Z,16.35
2023-04-23T09:25:20.334Z,18.85
2023-04-23T09:27:50.325Z,17.55
2023-04-23T09:30:19.970Z,24.45
2023-04-23T09:32:49.685Z,23.88
2023-04-23T09:35:20.812Z,17.90
2023-04-23T09:37:53.325Z,23.80
2023-04-23T09:40:25.524Z,18.60
2023-04-23T09:42:55.105Z,18.23
2023-04-23T09:45:25.213Z,17.05
2023-04-23T09:47:56.002Z,19.80
2023-04-23T09:50:34.812Z,17.13
2023-04-23T09:53:03.296Z,16.50
2023-04-23T09:55:38.460Z,16.08
2023-04-23T09:58:08.867Z,16.52
2023-04-23T10:00:38.897Z,19.65
2023-04-23T10:03:08.978Z,17.60
2023-04-23T10:08:14.601Z,21.63
2023-04-23T10:10:57.520Z,16.17
2023-04-23T10:13:34.813Z,15.57
2023-04-23T10:16:20.690Z,17.25
2023-04-23T10:18:55.279Z,14.52
2023-04-23T10:21:34.050Z,15.40
2023-04-23T10:24:11.777Z,15.63
2023-04-23T10:26:44.220Z,13.73
2023-04-23T10:29:18.923Z,13.88
2023-04-23T10:31:48.541Z,13.05
2023-04-23T10:34:17.488Z,15.23
2023-04-23T10:36:45.944Z,20.60
2023-04-23T10:39:24.094Z,13.48
2023-04-23T10:42:01.302Z,12.27
2023-04-23T10:47:15.969Z,12.60
2023-04-23T10:49:45.816Z,12.02
2023-04-23T10:52:21.153Z,11.70
2023-04-23T10:54:59.895Z,13.45
2023-04-23T10:57:30.284Z,9.85
2023-04-23T10:59:59.538Z,11.73
2023-04-23T11:02:28.426Z,11.25
2023-04-23T11:04:59.028Z,14.45
2023-04-23T11:10:01.597Z,17.13
2023-04-23T11:12:34.893Z,14.48
2023-04-23T11:15:12.812Z,12.68
2023-04-23T11:18:12.982Z,17.67
2023-04-23T11:20:42.217Z,14.88
2023-04-23T11:23:33.007Z,14.00
2023-04-23T11:26:02.435Z,11.23
2023-04-23T11:28:35.092Z,10.95
2023-04-23T11:31:04.227Z,12.02
2023-04-23T11:33:32.990Z,12.25
2023-04-23T11:36:03.900Z,10.45
2023-04-23T11:38:34.109Z,13.10
2023-04-23T11:41:05.322Z,11.45
2023-04-23T11:43:35.612Z,15.55
2023-04-23T11:46:04.176Z,15.70
2023-04-23T11:48:32.697Z,12.93
2023-04-23T11:51:01.191Z,12.80
2023-04-23T11:53:29.501Z,12.70
2023-04-23T11:55:57.976Z,10.40
2023-04-23T11:58:26.401Z,11.55
2023-04-23T12:01:00.695Z,11.52
2023-04-23T12:03:30.137Z,14.90
2023-04-23T12:06:00.034Z,10.75
2023-04-23T12:08:36.046Z,13.95
2023-04-23T12:11:06.753Z,11.50
2023-04-23T12:16:06.363Z,8.70
2023-04-23T12:18:38.077Z,10.38
2023-04-23T12:21:07.306Z,12.77
2023-04-23T12:23:36.741Z,9.18
2023-04-23T12:26:06.136Z,11.98
2023-04-23T12:28:34.489Z,10.75
2023-04-23T12:31:05.226Z,14.30
2023-04-23T12:33:33.723Z,14.18
2023-04-23T12:36:02.114Z,11.68
2023-04-23T12:38:31.566Z,11.82
2023-04-23T12:41:01.918Z,11.10
2023-04-23T12:43:30.618Z,5.68
2023-04-23T12:45:58.926Z,11.82
2023-04-23T12:48:29.375Z,9.90
2023-04-23T12:50:57.937Z,10.07
2023-04-23T12:53:26.584Z,8.30
2023-04-23T12:55:55.360Z,13.98
2023-04-23T12:58:23.964Z,6.57
2023-04-23T13:00:52.380Z,11.20
2023-04-23T13:03:20.903Z,9.57
2023-04-23T13:05:51.282Z,10.43
2023-04-23T13:08:20.166Z,11.65
2023-04-23T13:10:50.037Z,11.48
2023-04-23T13:13:18.470Z,10.65
2023-04-23T13:15:47.169Z,13.57
2023-04-23T13:18:15.705Z,10.05
2023-04-23T13:20:44.210Z,9.95
2023-04-23T13:23:13.969Z,11.27
2023-04-23T13:25:42.498Z,14.60
2023-04-23T13:28:10.780Z,10.15
2023-04-23T13:30:39.208Z,14.60
2023-04-23T13:33:07.558Z,10.30
2023-04-23T13:35:37.786Z,11.65
2023-04-23T13:38:06.280Z,12.68
2023-04-23T13:40:36.545Z,14.70
2023-04-23T13:45:33.566Z,15.75
2023-04-23T13:48:02.558Z,15.93
2023-04-23T13:50:30.976Z,15.57
2023-04-23T13:52:59.440Z,12.70
2023-04-23T13:55:28.263Z,15.15
2023-04-23T13:57:58.855Z,15.27
2023-04-23T14:02:58.327Z,11.68
2023-04-23T14:05:26.936Z,15.30
2023-04-23T14:07:55.369Z,12.13
2023-04-23T14:10:24.223Z,11.32
2023-04-23T14:12:53.217Z,9.82
2023-04-23T14:15:23.382Z,11.98
2023-04-23T14:17:51.841Z,11.65
2023-04-23T14:20:20.792Z,9.60
2023-04-23T14:22:51.845Z,10.43
2023-04-23T14:25:27.530Z,8.05
2023-04-23T14:27:58.450Z,7.95
2023-04-23T14:30:29.684Z,8.48
2023-04-23T14:32:58.215Z,9.93
2023-04-23T14:35:39.490Z,7.82
2023-04-23T14:38:12.708Z,10.82
2023-04-23T14:40:41.158Z,14.50
2023-04-23T14:43:15.397Z,11.73
2023-04-23T14:45:47.013Z,10.52
2023-04-23T14:48:15.470Z,9.13
2023-04-23T14:50:43.914Z,12.32
2023-04-23T14:53:12.338Z,10.60
2023-04-23T14:55:43.233Z,9.75
2023-04-23T14:58:11.834Z,9.50
2023-04-23T15:00:42.507Z,16.30
2023-04-23T15:05:42.014Z,9.10
2023-04-23T15:08:13.939Z,9.77
2023-04-23T15:10:47.276Z,8.77
2023-04-23T15:13:50.874Z,11.85
2023-04-23T15:16:47.490Z,8.90
2023-04-23T15:19:19.420Z,10.10
2023-04-23T15:24:16.948Z,10.90
2023-04-23T15:26:46.848Z,8.25
2023-04-23T15:29:15.479Z,9.30
2023-04-23T15:31:44.035Z,7.57
2023-04-23T15:34:12.502Z,9.07
2023-04-23T15:36:42.287Z,10.52
2023-04-23T15:39:10.906Z,8.17
2023-04-23T15:41:41.323Z,7.05
2023-04-23T15:44:12.546Z,9.13
2023-04-23T15:46:41.230Z,9.48
2023-04-23T15:49:09.602Z,6.60
2023-04-23T15:51:38.428Z,7.40
2023-04-23T15:54:09.084Z,6.90
2023-04-23T15:59:07.674Z,7.63
2023-04-23T16:01:37.145Z,5.57
2023-04-23T16:04:11.121Z,9.23
2023-04-23T16:06:40.356Z,8.73
2023-04-23T16:09:12.053Z,10.27
2023-04-23T16:11:41.153Z,5.32
2023-04-23T16:14:10.120Z,9.52
2023-04-23T16:16:39.298Z,9.43
2023-04-23T16:19:07.806Z,9.40
2023-04-23T16:21:36.175Z,6.22
2023-04-23T16:24:04.854Z,8.05
2023-04-23T16:26:34.795Z,7.05
2023-04-23T16:29:16.408Z,6.95
2023-04-23T16:31:45.706Z,7.32
2023-04-23T16:34:14.045Z,7.72
2023-04-23T16:36:42.575Z,6.25
2023-04-23T16:39:11.447Z,8.02
2023-04-23T16:41:41.494Z,9.27
2023-04-23T16:44:10.112Z,7.97
2023-04-23T16:46:38.775Z,8.73
2023-04-23T16:49:07.137Z,5.80
2023-04-23T16:51:35.538Z,6.75
2023-04-23T16:54:03.949Z,5.25
2023-04-23T16:56:32.937Z,6.90
2023-04-23T16:59:03.187Z,7.80
2023-04-23T17:01:31.584Z,4.83
2023-04-23T17:04:00.130Z,8.68
2023-04-23T17:06:30.852Z,5.38
2023-04-23T17:09:01.415Z,9.23
2023-04-23T17:11:31.456Z,7.68
2023-04-23T17:14:01.899Z,7.72
2023-04-23T17:16:31.025Z,7.72
2023-04-23T17:18:59.449Z,6.70
2023-04-23T17:21:28.543Z,8.57
2023-04-23T17:23:57.189Z,7.63
2023-04-23T17:26:25.616Z,7.25
2023-04-23T17:28:53.955Z,8.73
2023-04-23T17:31:23.813Z,6.85
2023-04-23T17:33:53.644Z,11.37
2023-04-23T17:36:22.028Z,10.00
2023-04-23T17:38:50.437Z,7.00
2023-04-23T17:41:19.166Z,7.57
2023-04-23T17:43:49.229Z,8.43
2023-04-23T17:46:17.981Z,8.25
2023-04-23T17:48:48.251Z,6.88
2023-04-23T17:51:17.155Z,8.32
2023-04-23T17:53:49.031Z,6.40
2023-04-23T17:56:17.757Z,9.43
2023-04-23T17:58:46.567Z,8.80
2023-04-23T18:01:17.615Z,9.13
2023-04-23T18:03:48.062Z,7.50
2023-04-23T18:06:16.822Z,10.35
2023-04-23T18:08:45.300Z,10.93
2023-04-23T18:11:14.882Z,9.43
2023-04-23T18:13:44.321Z,8.07
2023-04-23T18:16:13.008Z,8.80
2023-04-23T18:18:41.474Z,6.88
2023-04-23T18:21:13.393Z,6.40
2023-04-23T18:23:41.858Z,6.78
2023-04-23T18:26:10.272Z,10.40
2023-04-23T18:28:38.823Z,9.68
2023-04-23T18:31:07.346Z,11.10
2023-04-23T18:33:44.040Z,8.68
2023-04-23T18:36:25.775Z,9.93
2023-04-23T18:38:54.837Z,10.45
2023-04-23T18:41:23.604Z,8.93
2023-04-23T18:43:52.045Z,9.60
2023-04-23T18:46:23.717Z,10.50
2023-04-23T18:49:00.423Z,6.72
2023-04-23T18:51:39.731Z,7.97
2023-04-23T18:54:08.236Z,8.48
2023-04-23T18:56:36.778Z,7.55
2023-04-23T18:59:05.123Z,7.45
2023-04-23T19:01:33.558Z,11.25
2023-04-23T19:04:02.172Z,8.20
2023-04-23T19:06:32.374Z,7.03
2023-04-23T19:09:01.348Z,8.77
2023-04-23T19:11:34.132Z,6.85
2023-04-23T19:14:02.867Z,7.13
2023-04-23T19:16:31.317Z,6.10
2023-04-23T19:19:00.022Z,10.70
2023-04-23T19:21:28.841Z,8.00
2023-04-23T19:23:58.575Z,6.70
2023-04-23T19:26:27.058Z,8.57
2023-04-23T19:28:55.978Z,8.55
2023-04-23T19:31:24.460Z,9.90
2023-04-23T19:33:52.890Z,7.05
2023-04-23T19:36:21.249Z,8.40
2023-04-23T19:38:49.866Z,8.85
2023-04-23T19:41:19.674Z,10.10
2023-04-23T19:43:48.150Z,9.13
2023-04-23T19:46:16.642Z,9.93
2023-04-23T19:48:45.009Z,8.57
2023-04-23T19:51:13.483Z,9.90
2023-04-23T19:53:41.788Z,13.88
2023-04-23T19:56:13.186Z,9.93
2023-04-23T19:58:42.933Z,8.65
2023-04-23T20:01:13.144Z,9.82
2023-04-23T20:03:43.047Z,10.18
2023-04-23T20:06:11.605Z,8.70
2023-04-23T20:09:02.536Z,12.13
2023-04-23T20:11:31.109Z,11.65
2023-04-23T20:14:01.157Z,11.43
2023-04-23T20:16:29.715Z,11.27
2023-04-23T20:18:58.191Z,12.25
2023-04-23T20:21:26.893Z,12.23
2023-04-23T20:23:55.279Z,8.52
2023-04-23T20:26:23.764Z,10.52
2023-04-23T20:28:52.117Z,9.50
2023-04-23T20:31:22.408Z,7.70
2023-04-23T20:33:50.769Z,8.07
2023-04-23T20:36:20.054Z,8.35
2023-04-23T20:38:48.582Z,7.63
2023-04-23T20:41:17.218Z,8.20
2023-04-23T20:43:45.729Z,7.82
2023-04-23T20:46:14.162Z,7.90
2023-04-23T20:48:44.012Z,7.03
2023-04-23T20:51:12.508Z,7.57
2023-04-23T20:53:40.873Z,7.07
2023-04-23T20:56:09.205Z,6.95
2023-04-23T20:58:37.932Z,9.02
2023-04-23T21:01:07.608Z,8.82
2023-04-23T21:03:37.087Z,8.57
2023-04-23T21:06:09.721Z,9.25
2023-04-23T21:08:38.932Z,9.35
2023-04-23T21:11:11.060Z,11.05
2023-04-23T21:13:39.648Z,9.68
2023-04-23T21:16:08.335Z,11.95
2023-04-23T21:18:40.038Z,9.55
2023-04-23T21:21:09.887Z,7.60
2023-04-23T21:23:38.236Z,6.00
2023-04-23T21:26:07.557Z,5.35
2023-04-23T21:28:36.200Z,5.05
2023-04-23T21:31:12.302Z,6.07
2023-04-23T21:33:40.721Z,6.55
2023-04-23T21:36:10.739Z,6.97
2023-04-23T21:38:39.072Z,7.35
2023-04-23T21:41:07.817Z,6.88
2023-04-23T21:43:36.432Z,9.05
2023-04-23T21:46:04.835Z,9.15
2023-04-23T21:48:33.472Z,6.82
2023-04-23T21:51:02.273Z,5.60
2023-04-23T21:53:31.955Z,4.50
2023-04-23T21:56:00.489Z,6.78
2023-04-23T21:58:31.272Z,7.68
2023-04-23T22:00:59.658Z,9.48
2023-04-23T22:03:38.735Z,8.95
2023-04-23T22:06:09.523Z,12.02
2023-04-23T22:08:40.267Z,7.88
2023-04-23T22:11:09.251Z,11.55
2023-04-23T22:13:38.161Z,10.63
2023-04-23T22:16:20.345Z,10.88
2023-04-23T22:18:53.638Z,11.00
2023-04-23T22:21:22.016Z,7.97
2023-04-23T22:23:51.799Z,7.75
2023-04-23T22:26:20.162Z,8.83
2023-04-23T22:28:48.729Z,8.23
2023-04-23T22:31:17.440Z,6.55
2023-04-23T22:33:45.868Z,8.13
2023-04-23T22:36:14.260Z,7.88
2023-04-23T22:38:42.631Z,5.85
2023-04-23T22:41:12.405Z,6.70
2023-04-23T22:43:40.851Z,5.87
2023-04-23T22:46:09.408Z,8.85
2023-04-23T22:48:44.980Z,4.28
2023-04-23T22:51:13.485Z,6.05
2023-04-23T22:53:41.939Z,7.70
2023-04-23T22:56:11.691Z,7.10
2023-04-23T22:58:40.336Z,6.77
2023-04-23T23:01:08.720Z,5.80
2023-04-23T23:03:37.090Z,5.18
2023-04-23T23:06:06.229Z,5.03
2023-04-23T23:08:34.580Z,5.25
2023-04-23T23:11:02.920Z,5.75
2023-04-23T23:13:32.602Z,5.10
2023-04-23T23:16:04.702Z,9.10
2023-04-23T23:18:33.317Z,6.18
2023-04-23T23:21:01.595Z,9.85
2023-04-23T23:23:29.907Z,7.25
2023-04-23T23:26:00.086Z,4.72
2023-04-23T23:28:28.789Z,6.63
2023-04-23T23:30:58.615Z,7.57
2023-04-23T23:33:27.292Z,6.07
2023-04-23T23:35:56.246Z,4.22
2023-04-23T23:38:24.797Z,6.40
2023-04-23T23:40:53.094Z,6.20
2023-04-23T23:43:21.516Z,5.22
2023-04-23T23:45:49.983Z,5.05
2023-04-23T23:48:19.831Z,5.43
2023-04-23T23:50:48.238Z,4.68
2023-04-23T23:53:16.596Z,5.80
2023-04-23T23:55:44.927Z,8.73
2023-04-23T23:58:13.298Z,5.43
